createdAt,value
2018-09-06T00:01:03.393Z,99.9
2018-09-06T00:02:10.593Z,99.9
2018-09-06T00:03:17.803Z,99.9
2018-09-06T00:04:25.017Z,99.9
2018-09-06T00:05:32.232Z,99.9
2018-09-06T00:06:39.448Z,99.9
2018-09-06T00:07:46.663Z,99.9
2018-09-06T00:08:53.879Z,99.9
2018-09-06T00:10:01.098Z,99.9
2018-09-06T00:11:08.315Z,99.9
2018-09-06T00:12:15.532Z,99.9
2018-09-06T00:13:22.474Z,99.9
2018-09-06T00:14:29.694Z,99.9
2018-09-06T00:16:58.766Z,99.9
2018-09-06T00:18:05.706Z,99.9
2018-09-06T00:19:12.919Z,99.9
2018-09-06T00:20:20.131Z,99.9
2018-09-06T00:21:27.349Z,99.9
2018-09-06T00:22:34.567Z,99.9
2018-09-06T00:23:41.779Z,99.9
2018-09-06T00:24:48.995Z,99.9
2018-09-06T00:25:55.932Z,99.9
2018-09-06T00:27:03.153Z,99.9
2018-09-06T00:28:10.354Z,99.9
2018-09-06T00:29:17.566Z,99.9
2018-09-06T00:30:24.782Z,99.9
2018-09-06T00:31:31.995Z,99.9
2018-09-06T00:32:39.207Z,99.9
2018-09-06T00:33:46.426Z,99.9
2018-09-06T00:34:53.641Z,99.9
2018-09-06T00:36:00.856Z,99.9
2018-09-06T00:37:08.066Z,99.9
2018-09-06T00:38:15.284Z,99.9
2018-09-06T00:39:22.497Z,99.9
2018-09-06T00:40:29.710Z,99.9
2018-09-06T00:41:36.926Z,99.9
2018-09-06T00:42:44.135Z,99.9
2018-09-06T00:43:51.075Z,99.9
2018-09-06T00:44:58.290Z,99.9
2018-09-06T00:46:05.511Z,99.9
2018-09-06T00:47:12.718Z,99.9
2018-09-06T00:48:19.931Z,99.9
2018-09-06T00:49:26.861Z,99.9
2018-09-06T00:50:34.081Z,99.9
2018-09-06T00:51:41.292Z,99.9
2018-09-06T00:52:48.500Z,99.9
2018-09-06T00:53:55.716Z,99.9
2018-09-06T00:55:02.931Z,99.9
2018-09-06T00:56:10.152Z,99.9
2018-09-06T00:57:17.368Z,99.9
2018-09-06T00:58:24.578Z,99.9
2018-09-06T00:59:31.789Z,99.9
2018-09-06T01:00:39.006Z,99.9
2018-09-06T01:01:46.218Z,99.9
2018-09-06T01:02:53.436Z,99.9
2018-09-06T01:04:00.652Z,99.9
2018-09-06T01:05:07.867Z,99.9
2018-09-06T01:06:15.080Z,99.9
2018-09-06T01:07:22.021Z,99.9
2018-09-06T01:08:29.229Z,99.9
2018-09-06T01:09:36.445Z,99.9
2018-09-06T01:10:43.654Z,99.9
2018-09-06T01:11:50.863Z,99.9
2018-09-06T01:12:58.080Z,99.9
2018-09-06T01:14:05.294Z,99.9
2018-09-06T01:15:12.504Z,99.9
2018-09-06T01:16:19.716Z,99.9
2018-09-06T01:17:26.921Z,99.9
2018-09-06T01:18:34.135Z,99.9
2018-09-06T01:19:41.347Z,99.9
2018-09-06T01:20:48.292Z,99.9
2018-09-06T01:21:55.501Z,99.9
2018-09-06T01:23:02.715Z,99.9
2018-09-06T01:24:09.933Z,99.9
2018-09-06T01:25:17.141Z,99.9
2018-09-06T01:26:24.077Z,99.9
2018-09-06T01:27:31.015Z,99.9
2018-09-06T01:28:38.225Z,99.9
2018-09-06T01:29:45.154Z,99.9
2018-09-06T01:30:52.369Z,99.9
2018-09-06T01:31:59.581Z,99.9
2018-09-06T01:33:06.518Z,99.9
2018-09-06T01:34:13.736Z,99.9
2018-09-06T01:35:20.672Z,99.9
2018-09-06T01:36:27.885Z,99.9
2018-09-06T01:37:35.096Z,99.9
2018-09-06T01:38:42.310Z,99.9
2018-09-06T01:39:49.525Z,99.9
2018-09-06T01:40:56.732Z,99.9
2018-09-06T01:42:03.945Z,99.9
2018-09-06T01:43:11.153Z,99.9
2018-09-06T01:44:18.371Z,99.9
2018-09-06T01:45:25.584Z,99.9
2018-09-06T01:46:32.802Z,99.9
2018-09-06T01:47:40.016Z,99.9
2018-09-06T01:48:47.223Z,99.9
2018-09-06T01:49:54.431Z,99.9
2018-09-06T01:51:01.382Z,99.9
2018-09-06T01:52:08.591Z,99.9
2018-09-06T01:53:15.809Z,99.9
2018-09-06T01:54:23.015Z,99.9
2018-09-06T01:55:30.224Z,99.9
2018-09-06T01:56:37.158Z,99.9
2018-09-06T01:57:43.833Z,99.9
2018-09-06T01:58:51.043Z,99.9
2018-09-06T01:59:58.255Z,99.9
2018-09-06T02:01:05.476Z,99.9
2018-09-06T02:02:12.688Z,99.9
2018-09-06T02:03:19.631Z,99.9
2018-09-06T02:04:26.846Z,99.9
2018-09-06T02:05:34.056Z,99.9
2018-09-06T02:06:41.270Z,99.9
2018-09-06T02:07:48.482Z,99.9
2018-09-06T02:08:55.695Z,99.9
2018-09-06T02:10:02.908Z,99.9
2018-09-06T02:11:10.119Z,99.9
2018-09-06T02:12:17.331Z,99.9
2018-09-06T02:13:24.545Z,99.9
2018-09-06T02:14:31.757Z,99.9
2018-09-06T02:15:38.972Z,99.9
2018-09-06T02:16:45.909Z,99.9
2018-09-06T02:17:53.119Z,99.9
2018-09-06T02:19:00.330Z,99.9
2018-09-06T02:20:07.551Z,99.9
2018-09-06T02:21:14.768Z,99.9
2018-09-06T02:22:22.016Z,99.9
2018-09-06T02:23:29.232Z,99.9
2018-09-06T02:24:36.168Z,99.9
2018-09-06T02:25:43.109Z,99.9
2018-09-06T02:26:50.317Z,99.9
2018-09-06T02:27:57.524Z,99.9
2018-09-06T02:29:04.742Z,99.9
2018-09-06T02:30:11.955Z,99.9
2018-09-06T02:31:19.176Z,99.9
2018-09-06T02:32:26.385Z,99.9
2018-09-06T02:33:33.601Z,99.9
2018-09-06T02:34:40.815Z,99.9
2018-09-06T02:35:47.749Z,99.9
2018-09-06T02:36:54.967Z,99.9
2018-09-06T02:38:02.170Z,99.9
2018-09-06T02:39:09.385Z,99.9
2018-09-06T02:40:16.599Z,99.9
2018-09-06T02:41:23.813Z,99.9
2018-09-06T02:42:31.035Z,99.9
2018-09-06T02:43:38.248Z,99.9
2018-09-06T02:44:45.455Z,99.9
2018-09-06T02:45:52.670Z,99.9
2018-09-06T02:46:59.892Z,99.9
2018-09-06T02:48:06.819Z,99.9
2018-09-06T02:49:14.029Z,99.9
2018-09-06T02:50:21.243Z,99.9
2018-09-06T02:51:28.463Z,99.9
2018-09-06T02:52:35.669Z,99.9
2018-09-06T02:53:42.947Z,99.9
2018-09-06T02:54:50.221Z,99.9
2018-09-06T02:55:57.436Z,99.9
2018-09-06T02:57:04.657Z,99.9
2018-09-06T02:58:11.869Z,99.9
2018-09-06T02:59:19.082Z,99.9
2018-09-06T03:00:26.018Z,99.9
2018-09-06T03:01:32.958Z,99.9
2018-09-06T03:02:40.169Z,99.9
2018-09-06T03:03:47.377Z,99.9
2018-09-06T03:04:54.592Z,99.9
2018-09-06T03:06:01.812Z,99.9
2018-09-06T03:07:09.018Z,99.9
2018-09-06T03:08:15.967Z,99.9
2018-09-06T03:09:23.180Z,99.9
2018-09-06T03:10:30.116Z,99.9
2018-09-06T03:11:37.330Z,99.9
2018-09-06T03:12:44.542Z,99.9
2018-09-06T03:13:51.751Z,99.9
2018-09-06T03:14:58.695Z,99.9
2018-09-06T03:16:05.905Z,99.9
2018-09-06T03:17:13.114Z,99.9
2018-09-06T03:18:20.321Z,99.9
2018-09-06T03:19:27.535Z,99.9
2018-09-06T03:20:34.738Z,99.9
2018-09-06T03:21:41.945Z,99.9
2018-09-06T03:22:48.883Z,99.9
2018-09-06T03:23:56.106Z,99.9
2018-09-06T03:25:03.310Z,99.9
2018-09-06T03:26:10.522Z,99.9
2018-09-06T03:27:17.741Z,99.9
2018-09-06T03:28:24.959Z,99.9
2018-09-06T03:29:32.174Z,99.9
2018-09-06T03:30:39.387Z,99.9
2018-09-06T03:31:46.590Z,99.9
2018-09-06T03:32:53.806Z,99.9
2018-09-06T03:34:00.739Z,99.9
2018-09-06T03:35:07.979Z,99.9
2018-09-06T03:36:15.197Z,99.9
2018-09-06T03:37:22.131Z,99.9
2018-09-06T03:38:29.338Z,99.9
2018-09-06T03:39:36.290Z,99.9
2018-09-06T03:40:43.497Z,99.9
2018-09-06T03:41:50.439Z,99.9
2018-09-06T03:42:57.648Z,99.9
2018-09-06T03:44:04.870Z,99.9
2018-09-06T03:45:11.798Z,99.9
2018-09-06T03:46:19.006Z,99.9
2018-09-06T03:47:26.219Z,99.9
2018-09-06T03:48:33.426Z,99.9
2018-09-06T03:49:40.635Z,99.9
2018-09-06T03:50:47.845Z,99.9
2018-09-06T03:51:55.062Z,99.9
2018-09-06T03:53:02.269Z,99.9
2018-09-06T03:54:09.486Z,99.9
2018-09-06T03:55:16.696Z,99.9
2018-09-06T03:56:23.905Z,99.9
2018-09-06T03:57:31.113Z,99.9
2018-09-06T03:58:38.330Z,99.9
2018-09-06T03:59:45.536Z,99.9
2018-09-06T04:00:52.746Z,99.9
2018-09-06T04:01:59.954Z,99.9
2018-09-06T04:03:07.164Z,99.9
2018-09-06T04:04:14.378Z,99.9
2018-09-06T04:05:21.596Z,99.9
2018-09-06T04:06:28.815Z,99.9
2018-09-06T04:07:36.031Z,99.9
2018-09-06T04:08:42.967Z,99.9
2018-09-06T04:09:50.175Z,99.9
2018-09-06T04:10:57.113Z,99.9
2018-09-06T04:12:04.330Z,99.9
2018-09-06T04:13:11.542Z,99.9
2018-09-06T04:14:18.762Z,99.9
2018-09-06T04:15:25.967Z,99.9
2018-09-06T04:16:32.902Z,99.9
2018-09-06T04:17:39.838Z,99.9
2018-09-06T04:18:46.768Z,99.9
2018-09-06T04:19:53.980Z,99.9
2018-09-06T04:21:01.188Z,99.9
2018-09-06T04:22:08.402Z,99.9
2018-09-06T04:23:15.605Z,99.9
2018-09-06T04:24:22.895Z,99.9
2018-09-06T04:25:30.423Z,99.9
2018-09-06T04:26:37.638Z,99.9
2018-09-06T04:27:44.853Z,99.9
2018-09-06T04:28:52.059Z,99.9
2018-09-06T04:29:58.995Z,99.9
2018-09-06T04:31:06.203Z,99.9
2018-09-06T04:32:13.473Z,99.9
2018-09-06T04:33:20.680Z,99.9
2018-09-06T04:34:27.890Z,99.9
2018-09-06T04:35:35.146Z,99.9
2018-09-06T04:36:42.597Z,99.9
2018-09-06T04:37:49.747Z,99.9
2018-09-06T04:38:56.958Z,99.9
2018-09-06T04:40:04.169Z,99.9
2018-09-06T04:41:11.107Z,99.9
2018-09-06T04:42:18.326Z,99.9
2018-09-06T04:43:25.537Z,99.9
2018-09-06T04:44:32.756Z,99.9
2018-09-06T04:45:39.974Z,99.9
2018-09-06T04:46:47.185Z,99.9
2018-09-06T04:47:54.423Z,99.9
2018-09-06T04:49:01.637Z,99.9
2018-09-06T04:50:08.850Z,99.9
2018-09-06T04:51:16.062Z,99.9
2018-09-06T04:52:23.271Z,99.9
2018-09-06T04:53:30.482Z,99.9
2018-09-06T04:54:37.688Z,99.9
2018-09-06T04:55:44.625Z,99.9
2018-09-06T04:56:51.838Z,99.9
2018-09-06T04:57:59.049Z,99.9
2018-09-06T04:59:06.260Z,99.9
2018-09-06T05:00:13.482Z,99.9
2018-09-06T05:01:20.837Z,99.9
2018-09-06T05:02:28.046Z,99.9
2018-09-06T05:03:35.259Z,99.9
2018-09-06T05:04:42.471Z,99.9
2018-09-06T05:05:49.412Z,99.9
2018-09-06T05:06:56.627Z,99.9
2018-09-06T05:08:03.839Z,99.9
2018-09-06T05:09:10.771Z,99.9
2018-09-06T05:10:17.981Z,99.9
2018-09-06T05:11:25.196Z,99.9
2018-09-06T05:12:32.403Z,99.9
2018-09-06T05:13:39.622Z,99.9
2018-09-06T05:14:46.833Z,99.9
2018-09-06T05:15:54.042Z,99.9
2018-09-06T05:17:01.257Z,99.9
2018-09-06T05:18:08.475Z,99.9
2018-09-06T05:19:15.676Z,99.9
2018-09-06T05:20:22.888Z,99.9
2018-09-06T05:21:29.842Z,99.9
2018-09-06T05:23:58.910Z,99.9
2018-09-06T05:25:06.130Z,99.9
2018-09-06T05:26:13.334Z,99.9
2018-09-06T05:27:20.555Z,99.9
2018-09-06T05:28:27.770Z,99.9
2018-09-06T05:29:34.975Z,99.9
2018-09-06T05:30:41.971Z,99.9
2018-09-06T05:31:49.320Z,99.9
2018-09-06T05:32:56.531Z,99.9
2018-09-06T05:34:03.744Z,99.9
2018-09-06T05:35:11.051Z,99.9
2018-09-06T05:36:18.518Z,99.9
2018-09-06T05:37:26.147Z,99.9
2018-09-06T05:38:33.352Z,99.9
2018-09-06T05:39:40.556Z,99.9
2018-09-06T05:40:47.769Z,99.9
2018-09-06T05:41:54.978Z,99.9
2018-09-06T05:43:02.187Z,99.9
2018-09-06T05:44:09.399Z,99.9
2018-09-06T05:45:16.601Z,99.9
2018-09-06T05:46:23.814Z,99.9
2018-09-06T05:47:31.108Z,99.9
2018-09-06T05:48:38.694Z,99.9
2018-09-06T05:49:45.892Z,99.9
2018-09-06T05:50:53.105Z,99.9
2018-09-06T05:52:00.036Z,99.9
2018-09-06T05:53:07.247Z,99.9
2018-09-06T05:54:14.464Z,99.9
2018-09-06T05:55:21.677Z,99.9
2018-09-06T05:56:28.895Z,99.9
2018-09-06T05:57:36.099Z,99.9
2018-09-06T05:58:43.313Z,99.9
2018-09-06T05:59:50.558Z,99.9
2018-09-06T06:00:57.936Z,99.9
2018-09-06T06:02:05.152Z,99.9
2018-09-06T06:03:12.362Z,99.9
2018-09-06T06:04:19.571Z,99.9
2018-09-06T06:05:26.806Z,99.9
2018-09-06T06:06:34.004Z,99.9
2018-09-06T06:07:41.220Z,99.9
2018-09-06T06:08:48.431Z,99.9
2018-09-06T06:09:55.643Z,99.9
2018-09-06T06:11:02.590Z,99.9
2018-09-06T06:12:09.532Z,99.9
2018-09-06T06:13:16.743Z,99.9
2018-09-06T06:14:23.966Z,99.9
2018-09-06T06:15:31.177Z,99.9
2018-09-06T06:16:38.123Z,99.9
2018-09-06T06:17:45.071Z,99.9
2018-09-06T06:18:52.308Z,99.9
2018-09-06T06:19:59.581Z,99.9
2018-09-06T06:21:07.132Z,99.9
2018-09-06T06:22:14.422Z,99.9
2018-09-06T06:23:21.723Z,99.9
2018-09-06T06:24:28.672Z,99.9
2018-09-06T06:25:35.884Z,99.9
2018-09-06T06:26:43.096Z,99.9
2018-09-06T06:27:50.305Z,99.9
2018-09-06T06:28:57.551Z,99.9
2018-09-06T06:30:04.763Z,99.9
2018-09-06T06:31:11.982Z,99.9
2018-09-06T06:32:19.246Z,99.9
2018-09-06T06:33:26.811Z,99.9
2018-09-06T06:34:34.022Z,99.9
2018-09-06T06:35:40.966Z,99.9
2018-09-06T06:36:48.179Z,99.9
2018-09-06T06:37:55.392Z,99.9
2018-09-06T06:39:02.602Z,99.9
2018-09-06T06:40:09.815Z,99.9
2018-09-06T06:41:17.033Z,99.9
2018-09-06T06:42:24.253Z,99.9
2018-09-06T06:43:31.459Z,99.9
2018-09-06T06:44:38.675Z,99.9
2018-09-06T06:45:45.891Z,99.9
2018-09-06T06:46:53.103Z,99.9
2018-09-06T06:48:00.315Z,99.9
2018-09-06T06:49:07.526Z,99.9
2018-09-06T06:50:14.816Z,99.9
2018-09-06T06:51:22.092Z,99.9
2018-09-06T06:52:29.303Z,99.9
2018-09-06T06:53:36.517Z,99.9
2018-09-06T06:54:43.732Z,99.9
2018-09-06T06:55:50.677Z,99.9
2018-09-06T06:56:57.890Z,99.9
2018-09-06T06:58:05.104Z,99.9
2018-09-06T06:59:12.355Z,99.9
2018-09-06T07:00:19.570Z,99.9
2018-09-06T07:01:26.782Z,99.9
2018-09-06T07:02:33.997Z,99.9
2018-09-06T07:03:41.212Z,99.9
2018-09-06T07:04:48.426Z,99.9
2018-09-06T07:05:55.365Z,99.9
2018-09-06T07:07:02.674Z,99.9
2018-09-06T07:08:10.460Z,99.9
2018-09-06T07:09:17.674Z,99.9
2018-09-06T07:10:24.889Z,99.9
2018-09-06T07:11:32.101Z,99.9
2018-09-06T07:12:39.051Z,99.9
2018-09-06T07:13:46.259Z,99.9
2018-09-06T07:14:53.475Z,99.9
2018-09-06T07:16:00.734Z,99.9
2018-09-06T07:17:07.939Z,99.9
2018-09-06T07:18:15.182Z,99.9
2018-09-06T07:19:22.833Z,99.9
2018-09-06T07:20:30.046Z,99.9
2018-09-06T07:21:37.256Z,99.9
2018-09-06T07:22:44.474Z,99.9
2018-09-06T07:23:51.413Z,99.9
2018-09-06T07:24:58.640Z,99.9
2018-09-06T07:26:05.898Z,99.9
2018-09-06T07:27:13.110Z,99.9
2018-09-06T07:28:20.323Z,99.9
2018-09-06T07:29:27.546Z,99.9
2018-09-06T07:30:34.799Z,99.9
2018-09-06T07:31:41.882Z,99.9
2018-09-06T07:32:49.095Z,99.9
2018-09-06T07:33:56.309Z,99.9
2018-09-06T07:35:03.520Z,99.9
2018-09-06T07:36:10.785Z,99.9
2018-09-06T07:37:18.007Z,99.9
2018-09-06T07:38:25.228Z,99.9
2018-09-06T07:39:32.435Z,99.9
2018-09-06T07:40:39.659Z,99.9
2018-09-06T07:41:46.868Z,99.9
2018-09-06T07:42:54.090Z,99.9
2018-09-06T07:44:01.305Z,99.9
2018-09-06T07:45:08.525Z,99.9
2018-09-06T07:46:15.744Z,99.9
2018-09-06T07:47:22.960Z,99.9
2018-09-06T07:48:29.951Z,99.9
2018-09-06T07:49:37.161Z,99.9
2018-09-06T07:50:44.376Z,99.9
2018-09-06T07:51:51.602Z,99.9
2018-09-06T07:52:58.533Z,99.9
2018-09-06T07:54:05.748Z,99.9
2018-09-06T07:55:12.971Z,99.9
2018-09-06T07:56:20.221Z,99.9
2018-09-06T07:57:27.437Z,99.9
2018-09-06T07:58:34.661Z,99.9
2018-09-06T07:59:41.876Z,99.9
2018-09-06T08:00:49.089Z,99.9
2018-09-06T08:01:56.305Z,99.9
2018-09-06T08:03:03.521Z,99.9
2018-09-06T08:04:10.741Z,99.9
2018-09-06T08:05:17.956Z,99.9
2018-09-06T08:06:25.172Z,99.9
2018-09-06T08:07:32.393Z,99.9
2018-09-06T08:08:39.614Z,99.9
2018-09-06T08:09:46.836Z,99.9
2018-09-06T08:10:54.062Z,99.9
2018-09-06T08:12:01.286Z,99.9
2018-09-06T08:13:08.635Z,99.9
2018-09-06T08:14:15.854Z,99.9
2018-09-06T08:15:23.072Z,99.9
2018-09-06T08:16:30.288Z,99.9
2018-09-06T08:17:37.506Z,99.9
2018-09-06T08:18:44.753Z,99.9
2018-09-06T08:19:52.037Z,99.9
2018-09-06T08:20:59.259Z,99.9
2018-09-06T08:22:06.202Z,99.9
2018-09-06T08:23:13.418Z,99.9
2018-09-06T08:24:20.731Z,99.9
2018-09-06T08:25:28.437Z,97.2
2018-09-06T08:26:35.376Z,95.8
2018-09-06T08:27:42.590Z,97.2
2018-09-06T08:28:49.823Z,99.1
2018-09-06T08:29:57.043Z,97.9
2018-09-06T08:31:04.087Z,97.7
2018-09-06T08:32:11.942Z,99.9
2018-09-06T08:33:18.887Z,99.9
2018-09-06T08:34:26.109Z,99.9
2018-09-06T08:35:33.332Z,95.4
2018-09-06T08:36:40.554Z,99.2
2018-09-06T08:37:47.845Z,97.6
2018-09-06T08:38:54.781Z,99.9
2018-09-06T08:40:01.727Z,97.1
2018-09-06T08:41:08.944Z,99.4
2018-09-06T08:42:16.164Z,98.9
2018-09-06T08:43:23.439Z,96.2
2018-09-06T08:44:30.660Z,99.9
2018-09-06T08:45:37.877Z,94.6
2018-09-06T08:46:45.091Z,94
2018-09-06T08:47:52.311Z,92.1
2018-09-06T08:48:59.574Z,91.6
2018-09-06T08:50:06.534Z,91.5
2018-09-06T08:51:13.749Z,92.1
2018-09-06T08:52:21.006Z,92.3
2018-09-06T08:53:28.380Z,88.8
2018-09-06T08:54:35.603Z,85.3
2018-09-06T08:55:42.819Z,89.6
2018-09-06T08:56:50.043Z,87.9
2018-09-06T08:57:57.267Z,93
2018-09-06T08:59:04.218Z,92.3
2018-09-06T09:00:11.463Z,91.5
2018-09-06T09:01:18.681Z,77.6
2018-09-06T09:02:26.024Z,85.7
2018-09-06T09:03:33.731Z,83.4
2018-09-06T09:04:40.993Z,81.4
2018-09-06T09:05:48.575Z,80
2018-09-06T09:06:55.828Z,74.5
2018-09-06T09:08:03.046Z,78.6
2018-09-06T09:09:09.990Z,80
2018-09-06T09:10:16.930Z,80
2018-09-06T09:11:24.160Z,81.3
2018-09-06T09:12:31.504Z,74.3
2018-09-06T09:13:39.037Z,77.6
2018-09-06T09:14:46.257Z,76.8
2018-09-06T09:15:53.482Z,81
2018-09-06T09:17:00.438Z,87.1
2018-09-06T09:18:07.664Z,85.9
2018-09-06T09:19:14.883Z,88.4
2018-09-06T09:20:22.113Z,73.7
2018-09-06T09:21:29.384Z,80.4
2018-09-06T09:22:36.633Z,67.1
2018-09-06T09:23:43.862Z,74.8
2018-09-06T09:24:51.078Z,71.3
2018-09-06T09:25:58.306Z,76.3
2018-09-06T09:27:05.254Z,72.1
2018-09-06T09:28:12.524Z,61.6
2018-09-06T09:29:19.475Z,63
2018-09-06T09:30:26.771Z,61.7
2018-09-06T09:31:34.121Z,67.2
2018-09-06T09:32:41.344Z,71.2
2018-09-06T09:33:48.302Z,67
2018-09-06T09:34:55.512Z,62.1
2018-09-06T09:36:02.755Z,61.7
2018-09-06T09:37:10.026Z,60.2
2018-09-06T09:38:17.245Z,59.5
2018-09-06T09:39:24.459Z,57.9
2018-09-06T09:40:31.702Z,57.5
2018-09-06T09:41:38.915Z,50.9
2018-09-06T09:42:46.139Z,58.9
2018-09-06T09:43:53.358Z,56.5
2018-09-06T09:45:00.578Z,60.1
2018-09-06T09:48:19.939Z,54.9
2018-09-06T09:49:27.443Z,56.7
2018-09-06T09:51:40.991Z,55.4
2018-09-06T09:52:48.208Z,57.5
2018-09-06T09:53:55.433Z,50.3
2018-09-06T09:55:02.651Z,58.5
2018-09-06T09:56:09.892Z,51.8
2018-09-06T09:58:38.989Z,53.2
2018-09-06T09:59:46.221Z,43.6
2018-09-06T10:00:53.421Z,44.4
2018-09-06T10:02:00.635Z,52
2018-09-06T10:03:07.862Z,48.3
2018-09-06T10:04:15.143Z,44.2
2018-09-06T10:05:22.365Z,48.5
2018-09-06T10:06:29.678Z,45
2018-09-06T10:07:37.226Z,47.8
2018-09-06T10:08:43.893Z,44.8
2018-09-06T10:09:50.843Z,43
2018-09-06T10:10:58.074Z,53.3
2018-09-06T10:12:05.293Z,44.9
2018-09-06T10:13:12.523Z,47.4
2018-09-06T10:14:19.746Z,40.1
2018-09-06T10:15:26.960Z,39.3
2018-09-06T10:16:33.908Z,37.8
2018-09-06T10:17:41.123Z,38.2
2018-09-06T10:18:48.071Z,41.2
2018-09-06T10:19:55.290Z,48.5
2018-09-06T10:21:02.507Z,41.8
2018-09-06T10:22:09.724Z,44.5
2018-09-06T10:23:16.952Z,42.5
2018-09-06T10:24:24.172Z,40.5
2018-09-06T10:25:31.114Z,39.1
2018-09-06T10:26:38.347Z,36.9
2018-09-06T10:27:45.568Z,38.1
2018-09-06T10:28:52.783Z,38.1
2018-09-06T10:30:00.009Z,36.3
2018-09-06T10:31:07.238Z,38.3
2018-09-06T10:32:14.459Z,40.7
2018-09-06T10:33:21.683Z,35.6
2018-09-06T10:34:28.910Z,42.4
2018-09-06T10:35:36.136Z,32
2018-09-06T10:36:43.359Z,29.7
2018-09-06T10:37:50.576Z,32.9
2018-09-06T10:38:57.516Z,37.4
2018-09-06T10:40:04.827Z,37
2018-09-06T10:41:12.548Z,36.9
2018-09-06T10:42:19.772Z,37.8
2018-09-06T10:43:26.999Z,38.3
2018-09-06T10:44:33.935Z,35.2
2018-09-06T10:45:41.158Z,40.5
2018-09-06T10:46:48.112Z,36
2018-09-06T10:47:55.351Z,34.8
2018-09-06T10:49:02.857Z,35.4
2018-09-06T10:50:10.081Z,38.3
2018-09-06T10:51:17.298Z,31.1
2018-09-06T10:52:24.526Z,28.5
2018-09-06T10:53:31.468Z,34.5
2018-09-06T10:54:38.683Z,30.3
2018-09-06T10:55:45.903Z,29.5
2018-09-06T10:56:53.128Z,28.9
2018-09-06T10:58:00.069Z,29.5
2018-09-06T10:59:07.287Z,32.1
2018-09-06T11:00:14.516Z,31.5
2018-09-06T11:01:21.472Z,30.2
2018-09-06T11:02:28.698Z,31.6
2018-09-06T11:03:35.918Z,27.8
2018-09-06T11:04:43.139Z,26.6
2018-09-06T11:05:50.363Z,25.6
2018-09-06T11:06:57.584Z,26.8
2018-09-06T11:08:04.869Z,28.3
2018-09-06T11:09:12.866Z,26.1
2018-09-06T11:10:20.085Z,32
2018-09-06T11:11:27.300Z,29.1
2018-09-06T11:12:34.515Z,28.5
2018-09-06T11:13:41.733Z,24.9
2018-09-06T11:14:48.675Z,27.2
2018-09-06T11:15:55.891Z,28.3
2018-09-06T11:17:03.114Z,24.3
2018-09-06T11:18:10.425Z,27.5
2018-09-06T11:19:17.712Z,26.1
2018-09-06T11:20:24.940Z,24.1
2018-09-06T11:21:32.266Z,22.6
2018-09-06T11:22:40.224Z,21.1
2018-09-06T11:23:48.386Z,20.4
2018-09-06T11:24:55.609Z,20.2
2018-09-06T11:26:02.563Z,20.4
2018-09-06T11:27:09.782Z,22.7
2018-09-06T11:28:17.001Z,22.6
2018-09-06T11:29:24.226Z,21.8
2018-09-06T11:30:31.518Z,22.4
2018-09-06T11:31:38.733Z,18.1
2018-09-06T11:32:45.950Z,23.9
2018-09-06T11:33:53.172Z,21.2
2018-09-06T11:35:00.123Z,23.2
2018-09-06T11:36:07.348Z,21.1
2018-09-06T11:37:14.563Z,23.7
2018-09-06T11:38:21.786Z,21.9
2018-09-06T11:39:29.007Z,18.6
2018-09-06T11:40:36.223Z,22.8
2018-09-06T11:41:43.451Z,21.8
2018-09-06T11:42:50.676Z,19.6
2018-09-06T11:43:57.901Z,12.5
2018-09-06T11:45:05.112Z,12.8
2018-09-06T11:46:12.053Z,18
2018-09-06T11:47:19.140Z,19.8
2018-09-06T11:48:27.027Z,14.2
2018-09-06T11:49:34.257Z,16.1
2018-09-06T11:50:41.486Z,12.6
2018-09-06T11:51:48.431Z,10.4
2018-09-06T11:52:55.650Z,13.2
2018-09-06T11:54:02.318Z,12.6
2018-09-06T11:55:09.540Z,11.7
2018-09-06T11:56:16.765Z,11.2
2018-09-06T11:57:23.978Z,13.2
2018-09-06T11:58:31.204Z,13.8
2018-09-06T11:59:38.430Z,17.7
2018-09-06T12:00:45.640Z,17.4
2018-09-06T12:01:52.862Z,16.4
2018-09-06T12:02:59.807Z,11.5
2018-09-06T12:04:07.024Z,14.2
2018-09-06T12:05:14.248Z,10.9
2018-09-06T12:06:20.926Z,12.3
2018-09-06T12:07:28.145Z,14.2
2018-09-06T12:08:35.369Z,14.3
2018-09-06T12:09:42.314Z,11.1
2018-09-06T12:10:49.535Z,10.8
2018-09-06T12:11:56.766Z,12.9
2018-09-06T12:13:03.713Z,6.5
2018-09-06T12:14:10.665Z,10.2
2018-09-06T12:15:18.101Z,10.1
2018-09-06T12:16:25.048Z,9.7
2018-09-06T12:17:32.266Z,7.2
2018-09-06T12:18:39.496Z,5.6
2018-09-06T12:19:46.719Z,7.7
2018-09-06T12:20:53.943Z,8
2018-09-06T12:22:01.162Z,9
2018-09-06T12:23:08.386Z,9.1
2018-09-06T12:24:15.603Z,10
2018-09-06T12:25:22.874Z,6.4
2018-09-06T12:26:30.530Z,8
2018-09-06T12:27:37.751Z,8.5
2018-09-06T12:28:44.978Z,12.1
2018-09-06T12:29:52.197Z,12.5
2018-09-06T12:30:59.412Z,11
2018-09-06T12:32:06.739Z,12.9
2018-09-06T12:33:13.817Z,11.2
2018-09-06T12:34:21.296Z,9.5
2018-09-06T12:35:28.511Z,11.4
2018-09-06T12:36:35.733Z,14.5
2018-09-06T12:37:42.971Z,11.2
2018-09-06T12:38:50.193Z,10.3
2018-09-06T12:39:57.413Z,12.4
2018-09-06T12:41:04.640Z,12.3
2018-09-06T12:42:11.859Z,17.8
2018-09-06T12:43:19.079Z,15.2
2018-09-06T12:44:26.295Z,15.8
2018-09-06T12:45:33.528Z,14.4
2018-09-06T12:46:40.753Z,13.9
2018-09-06T12:47:47.989Z,14.9
2018-09-06T12:48:55.217Z,12.6
2018-09-06T12:50:02.444Z,14.5
2018-09-06T12:51:09.669Z,13.7
2018-09-06T12:52:16.895Z,13.9
2018-09-06T12:53:23.874Z,16.5
2018-09-06T12:54:31.094Z,16.1
2018-09-06T12:55:38.314Z,17.4
2018-09-06T12:56:45.532Z,15.6
2018-09-06T12:57:52.756Z,14.8
2018-09-06T12:58:59.975Z,16.1
2018-09-06T13:00:06.647Z,16.1
2018-09-06T13:01:13.874Z,16.3
2018-09-06T13:02:21.098Z,17.1
2018-09-06T13:03:28.327Z,19.7
2018-09-06T13:04:35.558Z,17.8
2018-09-06T13:05:42.503Z,15.7
2018-09-06T13:06:49.731Z,17
2018-09-06T13:07:56.690Z,15.9
2018-09-06T13:09:03.698Z,15.6
2018-09-06T13:10:10.923Z,16.5
2018-09-06T13:11:17.871Z,16.7
2018-09-06T13:12:25.099Z,20.2
2018-09-06T13:13:32.055Z,19.5
2018-09-06T13:14:39.273Z,19
2018-09-06T13:15:46.225Z,16.9
2018-09-06T13:16:53.441Z,18.4
2018-09-06T13:18:00.385Z,17.3
2018-09-06T13:19:07.601Z,14.6
2018-09-06T13:20:14.823Z,16.7
2018-09-06T13:21:22.045Z,16.7
2018-09-06T13:22:29.266Z,17.1
2018-09-06T13:23:36.486Z,16.4
2018-09-06T13:24:43.719Z,15.2
2018-09-06T13:25:50.394Z,15.4
2018-09-06T13:26:57.618Z,15.1
2018-09-06T13:28:04.840Z,16.5
2018-09-06T13:29:12.063Z,15.4
2018-09-06T13:30:19.280Z,16.2
2018-09-06T13:31:26.505Z,17.3
2018-09-06T13:32:33.726Z,18.8
2018-09-06T13:33:40.949Z,18.1
2018-09-06T13:34:48.173Z,28.6
2018-09-06T13:35:55.401Z,35
2018-09-06T13:37:02.661Z,47.4
2018-09-06T13:38:09.889Z,53.7
2018-09-06T13:39:17.120Z,61.8
2018-09-06T13:40:24.350Z,63.1
2018-09-06T13:41:31.576Z,63.8
2018-09-06T13:42:38.807Z,62.7
2018-09-06T13:43:46.030Z,61.4
2018-09-06T13:44:53.261Z,65.9
2018-09-06T13:46:00.483Z,69
2018-09-06T13:47:07.707Z,76.5
2018-09-06T13:48:14.932Z,81.7
2018-09-06T13:49:22.159Z,83.3
2018-09-06T13:50:29.385Z,85.6
2018-09-06T13:51:36.606Z,89.2
2018-09-06T13:52:43.824Z,91.7
2018-09-06T13:53:50.771Z,92.6
2018-09-06T13:54:57.729Z,90.5
2018-09-06T13:56:04.965Z,97.1
2018-09-06T13:57:12.196Z,99.9
2018-09-06T13:58:19.433Z,99.9
2018-09-06T13:59:26.792Z,99.9
2018-09-06T14:00:34.008Z,99.9
2018-09-06T14:01:41.239Z,99.9
2018-09-06T14:02:48.467Z,99.9
2018-09-06T14:03:55.688Z,99.9
2018-09-06T14:05:02.980Z,99.9
2018-09-06T14:06:10.356Z,99.9
2018-09-06T14:07:17.590Z,99.9
2018-09-06T14:08:24.826Z,99.9
2018-09-06T14:09:31.780Z,99.9
2018-09-06T14:10:39.003Z,99.9
2018-09-06T14:11:46.232Z,99.9
2018-09-06T14:12:53.459Z,99.9
2018-09-06T14:14:00.740Z,99.9
2018-09-06T14:15:07.958Z,99.9
2018-09-06T14:16:15.182Z,99.9
2018-09-06T14:17:22.415Z,99.9
2018-09-06T14:18:29.645Z,99.9
2018-09-06T14:19:36.894Z,99.9
2018-09-06T14:20:44.098Z,99.9
2018-09-06T14:21:51.044Z,99.9
2018-09-06T14:22:58.266Z,99.9
2018-09-06T14:24:05.532Z,99.9
2018-09-06T14:25:12.946Z,99.9
2018-09-06T14:26:20.198Z,99.9
2018-09-06T14:27:27.430Z,99.9
2018-09-06T14:28:34.666Z,99.9
2018-09-06T14:29:41.889Z,99.9
2018-09-06T14:30:49.113Z,99.9
2018-09-06T14:31:56.339Z,99.9
2018-09-06T14:33:03.708Z,99.9
2018-09-06T14:34:10.656Z,99.9
2018-09-06T14:35:17.880Z,99.9
2018-09-06T14:36:25.104Z,99.9
2018-09-06T14:37:32.324Z,99.9
2018-09-06T14:38:39.735Z,99.9
2018-09-06T14:39:47.084Z,99.9
2018-09-06T14:40:54.030Z,99.9
2018-09-06T14:42:01.250Z,99.9
2018-09-06T14:43:08.470Z,99.9
2018-09-06T14:44:15.692Z,99.9
2018-09-06T14:45:22.910Z,99.9
2018-09-06T14:46:29.858Z,99.9
2018-09-06T14:47:37.075Z,99.9
2018-09-06T14:48:44.309Z,99.9
2018-09-06T14:49:51.528Z,99.9
2018-09-06T14:50:58.481Z,99.9
2018-09-06T14:52:05.713Z,99.9
2018-09-06T14:53:12.374Z,99.9
2018-09-06T14:54:19.596Z,99.9
2018-09-06T14:55:26.828Z,99.9
2018-09-06T14:56:34.057Z,99.9
2018-09-06T14:57:41.011Z,99.9
2018-09-06T14:58:48.232Z,99.9
2018-09-06T14:59:55.451Z,99.9
2018-09-06T15:01:02.399Z,99.9
2018-09-06T15:02:09.622Z,99.9
2018-09-06T15:03:16.886Z,99.9
2018-09-06T15:04:24.103Z,99.9